Shirahamamaru — JG4872 — position and weather

sailwx.info

Track history (hours):
 
Tides and Currents Weather Stations Pressure Air Temp Water Temp Dewpoint Dewpoint Depression Visibility Wind Speed Wind Dir Waves Ship Positions

Shirahamamaru

Last reported at 2016-Jun-28 10:34 UTC. Time now 2016-Jun-28 11:33 UTC.
Position N 35°12' E 139°46'.

Length 79 m; draft 3.2 m.

Type: Passenger vessel. MMSI: 431000239.

Date/timePositionNaut miles runAvg speedWind from/ knotsBaromVisibWave heightAir tempDewpointWater temp
2016-Jun-28 10:34N 35°12' E 139°46'2 1.9
2016-Jun-28 09:33N 35°11' E 139°48'4 4.1
2016-Jun-28 08:33N 35°13' E 139°44'5 5.1
2016-Jun-28 07:34N 35°10' E 139°49'5 4.8
2016-Jun-28 06:34N 35°13' E 139°44'5 2.5
2016-Jun-28 04:33N 35°10' E 139°49'2 2.2
2016-Jun-28 03:33N 35°11' E 139°47'4 3.7
2016-Jun-28 02:33N 35°13' E 139°43'5 4.8
2016-Jun-28 01:33N 35°11' E 139°48'4 4.3
2016-Jun-28 00:32N 35°13' E 139°43'3 2.6
2016-Jun-27 23:33N 35°12' E 139°46'1 1.3
2016-Jun-27 22:33N 35°13' E 139°45'2 2.1
2016-Jun-27 21:34N 35°12' E 139°47'1 0.1
2016-Jun-27 10:33N 35°12' E 139°46'2 2.2
2016-Jun-27 09:33N 35°11' E 139°48'4 4.3
2016-Jun-27 08:33N 35°13' E 139°43'5 5.4
2016-Jun-27 07:33N 35°10' E 139°49'5 5.3
2016-Jun-27 06:32N 35°13' E 139°43'0 0.5
2016-Jun-27 05:33N 35°13' E 139°43'6 5.8
2016-Jun-27 04:33N 35°10' E 139°49'3 2.6
2016-Jun-27 03:33N 35°12' E 139°46'3 3.3
2016-Jun-27 02:33N 35°13' E 139°43'5 4.9
2016-Jun-27 01:33N 35°11' E 139°48'5 4.5
2016-Jun-27 00:33N 35°13' E 139°43'2 2.5
2016-Jun-26 23:33N 35°12' E 139°46'1 1.3
2016-Jun-26 22:33N 35°13' E 139°45'2 2.4
2016-Jun-26 21:33N 35°11' E 139°47'2 0.2
2016-Jun-26 10:33N 35°13' E 139°46'3 2.7
2016-Jun-26 09:33N 35°11' E 139°48'4 4.5
2016-Jun-26 08:34N 35°13' E 139°44'5 5.2
2016-Jun-26 07:33N 35°10' E 139°49'5 5.3
2016-Jun-26 06:33N 35°13' E 139°43'4 3.6
2016-Jun-26 05:33N 35°11' E 139°47'3 2.5
2016-Jun-26 04:33N 35°13' E 139°45'3 3.4
2016-Jun-26 03:33N 35°11' E 139°48'4 4.3
2016-Jun-26 02:33N 35°13' E 139°44'4 4.4
2016-Jun-26 01:33N 35°11' E 139°48'4 4.3
2016-Jun-26 00:33N 35°13' E 139°44'3 2.6
2016-Jun-25 23:33N 35°12' E 139°47'2 1.6
2016-Jun-25 22:33N 35°13' E 139°45'2 2.3
2016-Jun-25 21:33N 35°11' E 139°47'4 3.9
2016-Jun-25 20:33N 35°13' E 139°43'0 0.0
2016-Jun-24 11:33N 35°13' E 139°43'2 2.0
2016-Jun-24 10:33N 35°12' E 139°45'3 2.7
2016-Jun-24 09:33N 35°11' E 139°48'4 4.3
2016-Jun-24 08:33N 35°13' E 139°43'5 5.3
2016-Jun-24 07:33N 35°10' E 139°49'0 0.1
2016-Jun-24 04:33N 35°10' E 139°49'2 2.4
2016-Jun-24 03:32N 35°11' E 139°47'3 3.5
2016-Jun-24 02:33N 35°13' E 139°43'5 4.7
2016-Jun-24 01:33N 35°11' E 139°48'4 4.0
2016-Jun-24 00:33N 35°13' E 139°44'2 2.3
2016-Jun-23 23:33N 35°12' E 139°46'1 1.4
2016-Jun-23 22:33N 35°13' E 139°45'2 2.3
2016-Jun-23 21:33N 35°11' E 139°47'1 0.1
2016-Jun-23 10:33N 35°12' E 139°46'2 2.3
2016-Jun-23 09:34N 35°11' E 139°48'4 4.2
2016-Jun-23 08:34N 35°13' E 139°44'5 5.2
2016-Jun-23 07:33N 35°10' E 139°49'6 2.9
2016-Jun-23 05:33N 35°13' E 139°43'6 5.8
2016-Jun-23 04:33N 35°10' E 139°49'3 2.5
2016-Jun-23 03:33N 35°12' E 139°46'3 3.4
2016-Jun-23 02:33N 35°13' E 139°43'5 4.7
2016-Jun-23 01:34N 35°11' E 139°48'4 4.2
2016-Jun-23 00:33N 35°13' E 139°44'2 2.1
2016-Jun-22 23:33N 35°12' E 139°46'1 1.1
2016-Jun-22 22:33N 35°13' E 139°45'2 2.2
2016-Jun-22 21:33N 35°12' E 139°47'1 0.1
2016-Jun-22 10:33N 35°12' E 139°46'2 2.4
2016-Jun-22 09:33N 35°11' E 139°48'5 4.6
2016-Jun-22 08:32N 35°13' E 139°43'6 5.7
2016-Jun-22 07:33N 35°10' E 139°49'5 5.4
2016-Jun-22 06:33N 35°13' E 139°43'0 0.4
2016-Jun-22 05:33N 35°13' E 139°43'6 5.7
2016-Jun-22 04:32N 35°10' E 139°49'2 2.4
2016-Jun-22 03:33N 35°12' E 139°47'4 3.5
2016-Jun-22 02:33N 35°13' E 139°43'5 4.8
2016-Jun-22 01:33N 35°11' E 139°48'4 4.4
2016-Jun-22 00:33N 35°13' E 139°43'3 2.6
2016-Jun-21 23:33N 35°12' E 139°46'1 1.2
2016-Jun-21 22:33N 35°13' E 139°45'3 2.5
2016-Jun-21 21:34N 35°11' E 139°47'2 0.2
2016-Jun-21 10:33N 35°13' E 139°46'3 2.5
2016-Jun-21 09:33N 35°11' E 139°48'4 4.2
2016-Jun-21 08:33N 35°13' E 139°44'5 5.2
2016-Jun-21 07:33N 35°10' E 139°49'6 2.9
2016-Jun-21 05:33N 35°13' E 139°43'6 5.8
2016-Jun-21 04:33N 35°10' E 139°49'3 2.6
2016-Jun-21 03:33N 35°12' E 139°47'3 3.2
2016-Jun-21 02:32N 35°13' E 139°43'5 4.8
2016-Jun-21 01:33N 35°11' E 139°48'4 4.1
2016-Jun-21 00:33N 35°13' E 139°44'2 2.2
2016-Jun-20 23:33N 35°12' E 139°46'1 1.3
2016-Jun-20 22:33N 35°13' E 139°45'2 2.2
2016-Jun-20 21:33N 35°11' E 139°47'1 0.1
2016-Jun-20 10:33N 35°12' E 139°46'2 2.0
2016-Jun-20 09:33N 35°11' E 139°48'4 4.1
2016-Jun-20 08:33N 35°13' E 139°44'5 5.2
2016-Jun-20 07:33N 35°10' E 139°49'5 5.2
2016-Jun-20 06:33N 35°13' E 139°44'1 0.6
2016-Jun-20 05:33N 35°13' E 139°43'6 5.9
2016-Jun-20 04:33N 35°10' E 139°49'2 2.2
2016-Jun-20 03:33N 35°12' E 139°47'4 3.7
2016-Jun-20 02:33N 35°13' E 139°43'5 4.9
2016-Jun-20 01:33N 35°11' E 139°48'4 4.4
2016-Jun-20 00:33N 35°13' E 139°44'2 2.4
2016-Jun-19 23:33N 35°12' E 139°46'1 1.3
2016-Jun-19 22:33N 35°13' E 139°45'2 2.0
2016-Jun-19 21:33N 35°12' E 139°47'1 0.1
2016-Jun-19 10:33N 35°12' E 139°46'2 2.0
2016-Jun-19 09:33N 35°11' E 139°48'4 4.0
2016-Jun-19 08:33N 35°13' E 139°44'5 5.2
2016-Jun-19 07:33N 35°10' E 139°49'5 5.5
2016-Jun-19 06:33N 35°13' E 139°43'3 3.4
2016-Jun-19 05:33N 35°12' E 139°47'2 2.2
2016-Jun-19 04:33N 35°13' E 139°45'3 3.3
2016-Jun-19 03:33N 35°11' E 139°48'4 4.3
2016-Jun-19 02:33N 35°13' E 139°44'4 4.4
2016-Jun-19 01:33N 35°11' E 139°48'4 4.5
2016-Jun-19 00:33N 35°13' E 139°43'2 2.5
2016-Jun-18 23:33N 35°12' E 139°46'1 1.3
2016-Jun-18 22:33N 35°13' E 139°45'2 2.3
2016-Jun-18 21:33N 35°12' E 139°47'  
Track history (hours):
 
Tides and Currents Weather Stations Pressure Air Temp Water Temp Dewpoint Dewpoint Depression Visibility Wind Speed Wind Dir Waves Ship Positions

Shirahamamaru

Last reported at 2016-Jun-28 10:34 UTC. Time now 2016-Jun-28 11:33 UTC.
Position N 35°12' E 139°46'.

Length 79 m; draft 3.2 m.

Type: Passenger vessel. MMSI: 431000239.

Date/timePositionNaut miles runAvg speedWind from/ knotsBaromVisibWave heightAir tempDewpointWater temp
2016-Jun-28 10:34N 35°12' E 139°46'2 1.9
2016-Jun-28 09:33N 35°11' E 139°48'4 4.1
2016-Jun-28 08:33N 35°13' E 139°44'5 5.1
2016-Jun-28 07:34N 35°10' E 139°49'5 4.8
2016-Jun-28 06:34N 35°13' E 139°44'5 2.5
2016-Jun-28 04:33N 35°10' E 139°49'2 2.2
2016-Jun-28 03:33N 35°11' E 139°47'4 3.7
2016-Jun-28 02:33N 35°13' E 139°43'5 4.8
2016-Jun-28 01:33N 35°11' E 139°48'4 4.3
2016-Jun-28 00:32N 35°13' E 139°43'3 2.6
2016-Jun-27 23:33N 35°12' E 139°46'1 1.3
2016-Jun-27 22:33N 35°13' E 139°45'2 2.1
2016-Jun-27 21:34N 35°12' E 139°47'1 0.1
2016-Jun-27 10:33N 35°12' E 139°46'2 2.2
2016-Jun-27 09:33N 35°11' E 139°48'4 4.3
2016-Jun-27 08:33N 35°13' E 139°43'5 5.4
2016-Jun-27 07:33N 35°10' E 139°49'5 5.3
2016-Jun-27 06:32N 35°13' E 139°43'0 0.5
2016-Jun-27 05:33N 35°13' E 139°43'6 5.8
2016-Jun-27 04:33N 35°10' E 139°49'3 2.6
2016-Jun-27 03:33N 35°12' E 139°46'3 3.3
2016-Jun-27 02:33N 35°13' E 139°43'5 4.9
2016-Jun-27 01:33N 35°11' E 139°48'5 4.5
2016-Jun-27 00:33N 35°13' E 139°43'2 2.5
2016-Jun-26 23:33N 35°12' E 139°46'1 1.3
2016-Jun-26 22:33N 35°13' E 139°45'2 2.4
2016-Jun-26 21:33N 35°11' E 139°47'2 0.2
2016-Jun-26 10:33N 35°13' E 139°46'3 2.7
2016-Jun-26 09:33N 35°11' E 139°48'4 4.5
2016-Jun-26 08:34N 35°13' E 139°44'5 5.2
2016-Jun-26 07:33N 35°10' E 139°49'5 5.3
2016-Jun-26 06:33N 35°13' E 139°43'4 3.6
2016-Jun-26 05:33N 35°11' E 139°47'3 2.5
2016-Jun-26 04:33N 35°13' E 139°45'3 3.4
2016-Jun-26 03:33N 35°11' E 139°48'4 4.3
2016-Jun-26 02:33N 35°13' E 139°44'4 4.4
2016-Jun-26 01:33N 35°11' E 139°48'4 4.3
2016-Jun-26 00:33N 35°13' E 139°44'3 2.6
2016-Jun-25 23:33N 35°12' E 139°47'2 1.6
2016-Jun-25 22:33N 35°13' E 139°45'2 2.3
2016-Jun-25 21:33N 35°11' E 139°47'4 3.9
2016-Jun-25 20:33N 35°13' E 139°43'0 0.0
2016-Jun-24 11:33N 35°13' E 139°43'2 2.0
2016-Jun-24 10:33N 35°12' E 139°45'3 2.7
2016-Jun-24 09:33N 35°11' E 139°48'4 4.3
2016-Jun-24 08:33N 35°13' E 139°43'5 5.3
2016-Jun-24 07:33N 35°10' E 139°49'0 0.1
2016-Jun-24 04:33N 35°10' E 139°49'2 2.4
2016-Jun-24 03:32N 35°11' E 139°47'3 3.5
2016-Jun-24 02:33N 35°13' E 139°43'5 4.7
2016-Jun-24 01:33N 35°11' E 139°48'4 4.0
2016-Jun-24 00:33N 35°13' E 139°44'2 2.3
2016-Jun-23 23:33N 35°12' E 139°46'1 1.4
2016-Jun-23 22:33N 35°13' E 139°45'2 2.3
2016-Jun-23 21:33N 35°11' E 139°47'1 0.1
2016-Jun-23 10:33N 35°12' E 139°46'2 2.3
2016-Jun-23 09:34N 35°11' E 139°48'4 4.2
2016-Jun-23 08:34N 35°13' E 139°44'5 5.2
2016-Jun-23 07:33N 35°10' E 139°49'6 2.9
2016-Jun-23 05:33N 35°13' E 139°43'6 5.8
2016-Jun-23 04:33N 35°10' E 139°49'3 2.5
2016-Jun-23 03:33N 35°12' E 139°46'3 3.4
2016-Jun-23 02:33N 35°13' E 139°43'5 4.7
2016-Jun-23 01:34N 35°11' E 139°48'4 4.2
2016-Jun-23 00:33N 35°13' E 139°44'2 2.1
2016-Jun-22 23:33N 35°12' E 139°46'1 1.1
2016-Jun-22 22:33N 35°13' E 139°45'2 2.2
2016-Jun-22 21:33N 35°12' E 139°47'1 0.1
2016-Jun-22 10:33N 35°12' E 139°46'2 2.4
2016-Jun-22 09:33N 35°11' E 139°48'5 4.6
2016-Jun-22 08:32N 35°13' E 139°43'6 5.7
2016-Jun-22 07:33N 35°10' E 139°49'5 5.4
2016-Jun-22 06:33N 35°13' E 139°43'0 0.4
2016-Jun-22 05:33N 35°13' E 139°43'6 5.7
2016-Jun-22 04:32N 35°10' E 139°49'2 2.4
2016-Jun-22 03:33N 35°12' E 139°47'4 3.5
2016-Jun-22 02:33N 35°13' E 139°43'5 4.8
2016-Jun-22 01:33N 35°11' E 139°48'4 4.4
2016-Jun-22 00:33N 35°13' E 139°43'3 2.6
2016-Jun-21 23:33N 35°12' E 139°46'1 1.2
2016-Jun-21 22:33N 35°13' E 139°45'3 2.5
2016-Jun-21 21:34N 35°11' E 139°47'2 0.2
2016-Jun-21 10:33N 35°13' E 139°46'3 2.5
2016-Jun-21 09:33N 35°11' E 139°48'4 4.2
2016-Jun-21 08:33N 35°13' E 139°44'5 5.2
2016-Jun-21 07:33N 35°10' E 139°49'6 2.9
2016-Jun-21 05:33N 35°13' E 139°43'6 5.8
2016-Jun-21 04:33N 35°10' E 139°49'3 2.6
2016-Jun-21 03:33N 35°12' E 139°47'3 3.2
2016-Jun-21 02:32N 35°13' E 139°43'5 4.8
2016-Jun-21 01:33N 35°11' E 139°48'4 4.1
2016-Jun-21 00:33N 35°13' E 139°44'2 2.2
2016-Jun-20 23:33N 35°12' E 139°46'1 1.3
2016-Jun-20 22:33N 35°13' E 139°45'2 2.2
2016-Jun-20 21:33N 35°11' E 139°47'1 0.1
2016-Jun-20 10:33N 35°12' E 139°46'2 2.0
2016-Jun-20 09:33N 35°11' E 139°48'4 4.1
2016-Jun-20 08:33N 35°13' E 139°44'5 5.2
2016-Jun-20 07:33N 35°10' E 139°49'5 5.2
2016-Jun-20 06:33N 35°13' E 139°44'1 0.6
2016-Jun-20 05:33N 35°13' E 139°43'6 5.9
2016-Jun-20 04:33N 35°10' E 139°49'2 2.2
2016-Jun-20 03:33N 35°12' E 139°47'4 3.7
2016-Jun-20 02:33N 35°13' E 139°43'5 4.9
2016-Jun-20 01:33N 35°11' E 139°48'4 4.4
2016-Jun-20 00:33N 35°13' E 139°44'2 2.4
2016-Jun-19 23:33N 35°12' E 139°46'1 1.3
2016-Jun-19 22:33N 35°13' E 139°45'2 2.0
2016-Jun-19 21:33N 35°12' E 139°47'1 0.1
2016-Jun-19 10:33N 35°12' E 139°46'2 2.0
2016-Jun-19 09:33N 35°11' E 139°48'4 4.0
2016-Jun-19 08:33N 35°13' E 139°44'5 5.2
2016-Jun-19 07:33N 35°10' E 139°49'5 5.5
2016-Jun-19 06:33N 35°13' E 139°43'3 3.4
2016-Jun-19 05:33N 35°12' E 139°47'2 2.2
2016-Jun-19 04:33N 35°13' E 139°45'3 3.3
2016-Jun-19 03:33N 35°11' E 139°48'4 4.3
2016-Jun-19 02:33N 35°13' E 139°44'4 4.4
2016-Jun-19 01:33N 35°11' E 139°48'4 4.5
2016-Jun-19 00:33N 35°13' E 139°43'2 2.5
2016-Jun-18 23:33N 35°12' E 139°46'1 1.3
2016-Jun-18 22:33N 35°13' E 139°45'2 2.3
2016-Jun-18 21:33N 35°12' E 139°47'  

Dump ship's entire track history